createdAt,value
2022-09-28T02:12:05.906Z,99666.88
2022-09-28T03:08:34.754Z,99681.38
2022-09-28T03:37:30.593Z,99688.69
2022-09-28T03:53:26.154Z,99686.31
2022-09-28T04:28:08.047Z,99693.94
2022-09-28T04:42:24.045Z,99699.66
2022-09-28T05:54:47.915Z,99719.81
2022-09-28T05:57:15.070Z,99729.78
2022-09-28T05:59:41.497Z,99723.31
2022-09-28T06:02:07.991Z,99724.41
2022-09-28T06:04:34.451Z,99719.78
2022-09-28T06:07:00.893Z,99718.13
2022-09-28T06:09:27.332Z,99720.91
2022-09-28T06:11:53.791Z,99725.50
2022-09-28T06:14:20.211Z,99717.78
2022-09-28T06:16:46.659Z,99718.50
2022-09-28T06:19:13.130Z,99715.47
2022-09-28T06:21:39.592Z,99721.59
2022-09-28T06:24:06.182Z,99723.00
2022-09-28T06:26:32.689Z,99725.78
2022-09-28T06:29:00.509Z,99725.34
2022-09-28T06:31:30.090Z,99726.47
2022-09-28T06:33:56.724Z,99733.91
2022-09-28T06:36:23.644Z,99733.47
2022-09-28T06:38:50.058Z,99723.59
2022-09-28T06:41:16.482Z,99728.63
2022-09-28T06:43:43.360Z,99738.38
2022-09-28T06:46:10.511Z,99739.22
2022-09-28T06:48:37.679Z,99740.56
2022-09-28T06:51:04.541Z,99739.03
2022-09-28T06:53:31.391Z,99742.75
2022-09-28T06:55:57.952Z,99739.63
2022-09-28T06:58:24.942Z,99744.13
2022-09-28T07:00:52.037Z,99740.78
2022-09-28T07:03:21.638Z,99746.81
2022-09-28T07:05:53.908Z,99750.53
2022-09-28T07:08:24.662Z,99746.13
2022-09-28T07:10:58.264Z,99752.22
2022-09-28T07:16:14.794Z,99765.97
2022-09-28T07:18:42.257Z,99767.03
2022-09-28T07:21:14.763Z,99766.84
2022-09-28T07:23:53.184Z,99771.88
2022-09-28T07:26:23.617Z,99770.88
2022-09-28T07:28:50.693Z,99773.28
2022-09-28T07:31:17.278Z,99777.53
2022-09-28T07:33:43.721Z,99785.97
2022-09-28T07:36:10.641Z,99782.34
2022-09-28T07:38:38.238Z,99788.41
2022-09-28T07:41:14.322Z,99784.78
2022-09-28T07:43:41.881Z,99789.81
2022-09-28T07:46:11.947Z,99790.38
2022-09-28T07:48:40.317Z,99794.63
2022-09-28T07:51:08.029Z,99796.78
2022-09-28T07:53:35.175Z,99791.56
2022-09-28T07:56:17.195Z,99796.31
2022-09-28T07:58:43.821Z,99802.66
2022-09-28T08:01:12.969Z,99801.63
2022-09-28T08:03:39.740Z,99791.94
2022-09-28T08:06:09.753Z,99801.16
2022-09-28T08:08:36.724Z,99804.34
2022-09-28T08:11:05.781Z,99808.56
2022-09-28T08:13:32.278Z,99809.91
2022-09-28T08:16:02.427Z,99813.88
2022-09-28T08:18:29.275Z,99814.69
2022-09-28T08:21:14.276Z,99816.03
2022-09-28T08:23:41.246Z,99812.06
2022-09-28T08:26:11.063Z,99819.44
2022-09-28T08:28:42.350Z,99819.19
2022-09-28T08:31:09.341Z,99822.91
2022-09-28T08:33:36.074Z,99828.72
2022-09-28T08:36:04.449Z,99826.31
2022-09-28T08:38:31.278Z,99832.38
2022-09-28T08:41:12.677Z,99833.97
2022-09-28T08:44:10.340Z,99832.88
2022-09-28T08:46:49.387Z,99834.22
2022-09-28T08:49:29.701Z,99835.03
2022-09-28T08:52:11.416Z,99838.19
2022-09-28T08:54:38.851Z,99835.00
2022-09-28T08:57:15.699Z,99843.16
2022-09-28T08:59:54.165Z,99839.19
2022-09-28T09:02:36.672Z,99840.50
2022-09-28T09:05:06.713Z,99843.38
2022-09-28T09:07:58.037Z,99849.38
2022-09-28T09:10:39.567Z,99842.50
2022-09-28T09:13:50.369Z,99842.69
2022-09-28T09:16:25.709Z,99849.47
2022-09-28T09:19:17.317Z,99853.44
2022-09-28T09:21:46.804Z,99858.97
2022-09-28T09:24:26.984Z,99857.66
2022-09-28T09:39:32.803Z,99858.34
2022-09-28T09:46:16.011Z,99862.28
2022-09-28T09:52:45.144Z,99872.22
2022-09-28T09:56:47.538Z,99870.84
2022-09-28T10:36:27.830Z,99862.00
2022-09-28T11:41:39.613Z,99859.66
2022-09-28T11:44:58.898Z,99848.84
2022-09-28T12:04:27.583Z,99861.47
2022-09-28T12:33:16.878Z,99903.50
2022-09-28T12:51:30.564Z,99896.34
2022-09-28T12:54:31.594Z,99899.97
2022-09-28T12:57:22.905Z,99892.28
2022-09-28T13:04:27.744Z,99891.94
2022-09-28T13:11:09.714Z,99885.47
2022-09-28T13:13:46.833Z,99887.53
2022-09-28T13:19:54.734Z,99894.28
2022-09-28T13:22:44.469Z,99892.34
2022-09-28T13:25:16.563Z,99890.31
2022-09-28T13:27:58.706Z,99898.31
2022-09-28T13:30:25.771Z,99897.28
2022-09-28T13:32:57.625Z,99898.63
2022-09-28T13:35:25.097Z,99900.81
2022-09-28T13:38:23.657Z,99901.94
2022-09-28T13:41:05.244Z,99902.03
2022-09-28T13:43:40.070Z,99900.84
2022-09-28T13:54:29.544Z,99893.56
2022-09-28T13:57:19.648Z,99895.16
2022-09-28T14:00:40.936Z,99891.25
2022-09-28T14:03:20.557Z,99894.84
2022-09-28T14:13:43.446Z,99908.09
2022-09-28T14:16:32.341Z,99905.25
2022-09-28T14:27:34.839Z,99908.47
2022-09-28T14:38:54.016Z,99915.69
2022-09-28T14:46:09.777Z,99932.09
2022-09-28T14:56:21.823Z,99925.63
2022-09-28T15:02:52.707Z,99919.41
2022-09-28T15:13:42.315Z,99936.44
2022-09-28T16:07:12.857Z,99950.03
2022-09-28T16:21:36.196Z,99947.53
2022-09-28T16:39:55.966Z,99953.03
2022-09-28T17:01:23.164Z,99982.63
2022-09-28T17:03:50.338Z,99979.47
2022-09-28T17:06:19.764Z,99985.84
2022-09-28T17:08:46.679Z,99981.09
2022-09-28T17:11:26.973Z,99991.63
2022-09-28T17:13:59.445Z,99994.00
2022-09-28T17:16:49.800Z,100001.66
2022-09-28T17:19:33.108Z,99999.00
2022-09-28T17:26:24.331Z,99994.22
2022-09-28T17:28:50.769Z,99995.25
2022-09-28T17:31:17.770Z,100001.03
2022-09-28T17:33:45.189Z,100002.56
2022-09-28T17:36:17.554Z,100009.66
2022-09-28T17:38:44.715Z,100009.94
2022-09-28T17:45:07.489Z,100010.91
2022-09-28T17:47:34.505Z,100012.19
2022-09-28T17:50:01.075Z,100013.19
2022-09-28T17:52:38.081Z,100018.47
2022-09-28T17:55:30.390Z,100016.09
2022-09-28T17:57:58.113Z,100016.06
2022-09-28T18:13:21.738Z,100020.22
2022-09-28T18:15:51.658Z,100019.41
2022-09-28T18:18:18.635Z,100020.69
2022-09-28T18:20:45.162Z,100013.03
2022-09-28T18:23:11.696Z,100029.81
2022-09-28T18:25:43.061Z,100019.50
2022-09-28T18:28:10.675Z,100019.44
2022-09-28T18:30:42.827Z,100017.56
2022-09-28T18:33:10.420Z,100023.88
2022-09-28T18:35:37.022Z,100023.81
2022-09-28T18:38:05.294Z,100022.47
2022-09-28T18:41:11.388Z,100029.31
2022-09-28T18:48:05.774Z,100029.53
2022-09-28T18:50:32.357Z,100025.31
2022-09-28T18:53:11.394Z,100023.97
2022-09-28T18:55:42.505Z,100028.38
2022-09-28T18:58:10.590Z,100021.72
2022-09-28T19:00:39.311Z,100029.06
2022-09-28T19:03:06.915Z,100028.81
2022-09-28T19:05:35.023Z,100028.31
2022-09-28T19:08:01.802Z,100025.19
2022-09-28T19:10:28.660Z,100024.16
2022-09-28T19:12:55.115Z,100026.78
2022-09-28T19:15:22.745Z,100024.66
2022-09-28T19:17:50.074Z,100021.97
2022-09-28T19:20:17.145Z,100024.84
2022-09-28T19:22:44.208Z,100027.41
2022-09-28T19:25:11.080Z,100026.06
2022-09-28T19:27:37.617Z,100032.34
2022-09-28T19:30:04.508Z,100032.34
2022-09-28T19:32:31.067Z,100039.19
2022-09-28T19:34:58.527Z,100035.00
2022-09-28T19:37:25.135Z,100033.13
2022-09-28T19:39:51.656Z,100040.94
2022-09-28T19:42:18.145Z,100034.59
2022-09-28T19:44:44.849Z,100041.13
2022-09-28T19:47:13.075Z,100041.63
2022-09-28T19:49:40.656Z,100042.34
2022-09-28T19:52:15.605Z,100053.81
2022-09-28T19:54:44.419Z,100046.66
2022-09-28T19:57:12.582Z,100052.22
2022-09-28T19:59:39.073Z,100049.84
2022-09-28T20:02:10.160Z,100049.28
2022-09-28T20:04:36.759Z,100055.59
2022-09-28T20:07:04.263Z,100052.13
2022-09-28T20:09:31.920Z,100055.47
2022-09-28T20:11:58.394Z,100066.47
2022-09-28T20:14:28.166Z,100068.53
2022-09-28T20:16:58.458Z,100068.22
2022-09-28T20:19:24.961Z,100065.84
2022-09-28T20:21:51.450Z,100069.97
2022-09-28T20:24:18.023Z,100068.06
2022-09-28T20:26:45.836Z,100076.09
2022-09-28T20:29:12.838Z,100072.41
2022-09-28T20:31:39.778Z,100075.50
2022-09-28T20:34:07.026Z,100075.97
2022-09-28T20:36:33.898Z,100075.66
2022-09-28T20:39:04.270Z,100075.59
2022-09-28T20:41:35.663Z,100076.78
2022-09-28T20:44:05.599Z,100080.91
2022-09-28T20:46:33.524Z,100082.72
2022-09-28T20:49:00.245Z,100085.28
2022-09-28T20:51:26.916Z,100079.75
2022-09-28T20:53:55.385Z,100079.25
2022-09-28T20:56:24.570Z,100085.84
2022-09-28T20:58:51.953Z,100084.00
2022-09-28T21:01:21.329Z,100082.38
2022-09-28T21:03:50.300Z,100084.66
2022-09-28T21:06:18.253Z,100086.41
2022-09-28T21:08:45.890Z,100084.50
2022-09-28T21:11:13.710Z,100086.78
2022-09-28T21:13:42.833Z,100091.16
2022-09-28T21:16:15.855Z,100094.47
2022-09-28T21:18:42.591Z,100091.78
2022-09-28T21:21:14.751Z,100088.50
2022-09-28T21:23:42.604Z,100097.63
2022-09-28T21:26:15.708Z,100094.13
2022-09-28T21:28:44.740Z,100096.19
2022-09-28T21:31:12.711Z,100097.44
2022-09-28T21:33:39.417Z,100097.91
2022-09-28T21:36:07.741Z,100101.88
2022-09-28T21:38:35.022Z,100101.66
2022-09-28T21:41:01.811Z,100098.16
2022-09-28T21:43:29.832Z,100106.47
2022-09-28T21:45:57.596Z,100105.44
2022-09-28T21:48:27.529Z,100107.25
2022-09-28T21:51:03.892Z,100115.81
2022-09-28T21:53:35.361Z,100112.56
2022-09-28T21:56:03.766Z,100113.25
2022-09-28T21:58:33.533Z,100106.44
2022-09-28T22:01:08.396Z,100105.88
2022-09-28T22:03:36.395Z,100110.06
2022-09-28T22:06:04.339Z,100111.09
2022-09-28T22:08:30.783Z,100112.59
2022-09-28T22:11:04.623Z,100115.44
2022-09-28T22:13:36.916Z,100115.09
2022-09-28T22:16:03.633Z,100108.97
2022-09-28T22:18:31.399Z,100113.53
2022-09-28T22:21:13.705Z,100119.00
2022-09-28T22:23:40.330Z,100117.53
2022-09-28T22:26:18.890Z,100111.16
2022-09-28T22:28:47.973Z,100126.06
2022-09-28T22:31:15.854Z,100127.31
2022-09-28T22:33:42.535Z,100128.44
2022-09-28T22:36:16.836Z,100130.72
2022-09-28T22:38:53.698Z,100129.59
2022-09-28T22:41:23.254Z,100132.31
2022-09-28T22:43:51.647Z,100130.72
2022-09-28T22:46:21.136Z,100128.47
2022-09-28T22:48:49.114Z,100131.88
2022-09-28T22:51:15.998Z,100133.81
2022-09-28T22:53:42.933Z,100137.44
2022-09-28T22:56:12.600Z,100132.34
2022-09-28T22:58:42.641Z,100133.13
2022-09-28T23:01:21.512Z,100124.94
2022-09-28T23:03:48.484Z,100131.63
2022-09-28T23:06:17.363Z,100130.50
2022-09-28T23:08:45.253Z,100138.66
2022-09-28T23:11:11.844Z,100126.88
2022-09-28T23:13:38.374Z,100132.66
2022-09-28T23:16:07.040Z,100130.28
2022-09-28T23:18:35.828Z,100133.22
2022-09-28T23:21:05.197Z,100130.47
2022-09-28T23:23:32.454Z,100132.97
2022-09-28T23:25:59.415Z,100139.44
2022-09-28T23:28:27.043Z,100136.81
2022-09-28T23:30:54.342Z,100140.91
2022-09-28T23:33:22.206Z,100146.13
2022-09-28T23:35:49.434Z,100140.09
2022-09-28T23:38:18.190Z,100148.63
2022-09-28T23:40:47.882Z,100152.47
2022-09-28T23:43:14.787Z,100145.22
2022-09-28T23:45:45.501Z,100146.44
2022-09-28T23:48:14.936Z,100142.34
2022-09-28T23:50:43.283Z,100146.66
2022-09-28T23:53:11.797Z,100139.69
2022-09-28T23:55:38.239Z,100135.72
2022-09-28T23:58:04.688Z,100136.50
